Time;durP1;ratioP1;P1;durP2;ratioP2;P2;SDS_P1;SDS_P2;PMS_P1;PMS_P2;Temp;Humidity;BMP_temperature;BMP_pressure;BME280_temperature;BME280_humidity;BME280_pressure;Samples;Min_cycle;Max_cycle;Signal;HPM_P1;HPM_P2
2022/12/24 00:01:54;;;;;;;36.03;5.35;;;;;;;7.83;100.00;100651.59;5052432;28;20028;-83
2022/12/24 00:04:19;;;;;;;40.35;5.97;;;;;;;7.84;100.00;100655.94;5052755;28;20409;-83
2022/12/24 00:06:46;;;;;;;39.65;5.13;;;;;;;7.79;100.00;100653.63;5052202;28;20500;-83
2022/12/24 00:09:11;;;;;;;35.10;5.30;;;;;;;7.71;100.00;100654.28;5052637;28;20041;-84
2022/12/24 00:11:37;;;;;;;47.22;5.00;;;;;;;7.65;100.00;100657.41;5052270;28;20054;-82
2022/12/24 00:14:02;;;;;;;32.97;5.03;;;;;;;7.61;100.00;100657.78;5052688;28;20087;-84
2022/12/24 00:16:27;;;;;;;42.92;5.35;;;;;;;7.59;100.00;100656.09;5052681;28;20033;-83
2022/12/24 00:18:53;;;;;;;39.95;5.90;;;;;;;7.52;100.00;100659.38;5052399;28;20474;-83
2022/12/24 00:21:18;;;;;;;40.20;6.53;;;;;;;7.59;100.00;100665.88;5052692;28;20029;-84
2022/12/24 00:23:44;;;;;;;29.13;5.38;;;;;;;7.65;100.00;100661.88;5051851;28;20029;-83
2022/12/24 00:26:09;;;;;;;32.72;4.82;;;;;;;7.62;100.00;100662.97;5050052;28;20160;-83
2022/12/24 00:28:35;;;;;;;33.67;6.13;;;;;;;7.64;100.00;100665.50;5052132;28;20568;-81
2022/12/24 00:31:10;;;;;;;40.05;5.50;;;;;;;7.65;100.00;100667.19;5052037;28;20505;-84
2022/12/24 00:33:35;;;;;;;39.42;5.88;;;;;;;7.69;100.00;100672.09;5052341;28;20052;-82
2022/12/24 00:36:01;;;;;;;37.92;5.95;;;;;;;7.62;100.00;100678.84;5052245;28;20033;-83
2022/12/24 00:38:26;;;;;;;47.45;6.15;;;;;;;7.54;100.00;100695.38;5052851;28;20119;-84
2022/12/24 00:41:00;;;;;;;42.35;5.47;;;;;;;7.54;100.00;100674.19;5052540;28;20064;-85
2022/12/24 00:43:26;;;;;;;31.35;5.18;;;;;;;7.57;100.00;100681.03;5055584;28;20543;-84
2022/12/24 00:45:52;;;;;;;39.97;6.93;;;;;;;7.57;100.00;100703.06;5052432;28;20029;-83
2022/12/24 00:48:17;;;;;;;35.25;5.72;;;;;;;7.55;100.00;100698.84;5056428;28;20082;-83
2022/12/24 00:50:42;;;;;;;34.58;4.60;;;;;;;7.56;100.00;100700.53;5052190;28;20059;-83
2022/12/24 00:53:08;;;;;;;31.42;4.60;;;;;;;7.57;100.00;100711.00;5052571;28;20044;-84
2022/12/24 00:55:33;;;;;;;44.55;5.90;;;;;;;7.57;100.00;100699.59;5053315;28;20036;-84
2022/12/24 00:57:58;;;;;;;36.45;5.30;;;;;;;7.51;100.00;100706.19;5051918;28;20029;-85
2022/12/24 01:00:24;;;;;;;41.15;5.88;;;;;;;7.42;100.00;100712.22;5051866;28;20453;-83
2022/12/24 01:02:49;;;;;;;29.02;6.03;;;;;;;7.48;100.00;100719.69;5050561;28;20384;-84
2022/12/24 01:05:16;;;;;;;42.17;5.93;;;;;;;7.44;100.00;100720.88;5052347;28;20029;-83
2022/12/24 01:07:43;;;;;;;40.70;4.80;;;;;;;7.46;100.00;100724.25;5050768;28;20028;-81
2022/12/24 01:10:10;;;;;;;40.95;5.80;;;;;;;7.41;100.00;100714.03;5052060;28;20112;-84
2022/12/24 01:12:36;;;;;;;39.38;5.97;;;;;;;7.38;100.00;100719.56;5052151;28;20040;-83
2022/12/24 01:15:02;;;;;;;36.25;4.72;;;;;;;7.40;100.00;100727.38;5052001;28;20457;-83
2022/12/24 01:17:30;;;;;;;37.85;5.47;;;;;;;7.39;100.00;100733.66;5052810;28;20424;-84
2022/12/24 01:19:56;;;;;;;32.88;5.18;;;;;;;7.42;100.00;100728.13;5062521;28;20490;-85
2022/12/24 01:22:21;;;;;;;36.78;5.90;;;;;;;7.39;100.00;100728.38;5052126;28;20068;-84
2022/12/24 01:24:47;;;;;;;38.65;5.28;;;;;;;7.45;100.00;100725.22;5051750;28;20033;-82
2022/12/24 01:27:12;;;;;;;35.05;5.10;;;;;;;7.46;100.00;100729.53;5051968;28;20116;-83
2022/12/24 01:29:37;;;;;;;33.60;4.65;;;;;;;7.44;100.00;100735.94;5051529;28;20099;-84
2022/12/24 01:32:03;;;;;;;34.88;5.28;;;;;;;7.40;100.00;100732.66;5051581;28;20045;-84
2022/12/24 01:34:29;;;;;;;30.15;4.00;;;;;;;7.39;100.00;100749.53;5051678;28;20041;-84
2022/12/24 01:36:54;;;;;;;36.83;5.47;;;;;;;7.36;100.00;100753.25;5054210;28;20381;-84
2022/12/24 01:39:19;;;;;;;32.92;5.90;;;;;;;7.34;100.00;100751.69;5055769;28;20082;-84
2022/12/24 01:44:31;;;;;;;30.95;5.03;;;;;;;7.30;100.00;100763.47;5055250;28;20521;-84
2022/12/24 01:47:28;;;;;;;37.20;5.35;;;;;;;7.31;100.00;100773.09;5054899;28;20126;-85
2022/12/24 01:50:00;;;;;;;28.52;4.72;;;;;;;7.30;100.00;100771.41;5055202;28;20036;-84
2022/12/24 01:52:29;;;;;;;34.90;4.60;;;;;;;7.27;100.00;100758.41;5055288;28;20029;-85
2022/12/24 01:55:04;;;;;;;33.50;4.95;;;;;;;7.23;100.00;100773.72;5054685;28;20025;-82
2022/12/24 01:57:36;;;;;;;30.50;5.00;;;;;;;7.33;100.00;100766.75;5055301;28;20035;-83
2022/12/24 02:00:06;;;;;;;27.80;4.03;;;;;;;7.37;100.00;100778.75;5054667;28;20033;-83
2022/12/24 02:02:33;;;;;;;29.13;4.47;;;;;;;7.36;100.00;100768.28;5053704;28;20385;-83
2022/12/24 02:05:14;;;;;;;30.17;4.25;;;;;;;7.35;100.00;100774.56;5054170;28;20473;-85
2022/12/24 02:07:42;;;;;;;28.50;3.92;;;;;;;7.39;100.00;100786.59;5055050;28;20029;-84
2022/12/24 02:10:10;;;;;;;28.63;4.63;;;;;;;7.46;100.00;100787.78;5054235;28;20036;-85
2022/12/24 02:12:37;;;;;;;36.05;4.18;;;;;;;7.50;100.00;100791.88;5055271;28;20075;-83
2022/12/24 02:15:05;;;;;;;37.35;4.85;;;;;;;7.47;100.00;100796.59;5054509;28;20055;-83
2022/12/24 02:17:31;;;;;;;25.73;3.70;;;;;;;7.43;100.00;100789.84;5055102;28;20093;-82
2022/12/24 02:20:05;;;;;;;33.05;4.03;;;;;;;7.45;100.00;100795.84;5054388;28;20029;-83
2022/12/24 02:23:00;;;;;;;26.20;4.45;;;;;;;7.47;100.00;100799.22;5054742;28;20028;-83
2022/12/24 02:25:52;;;;;;;30.52;4.00;;;;;;;7.55;100.00;100796.81;5056458;28;20033;-83
2022/12/24 02:28:40;;;;;;;20.90;3.28;;;;;;;7.54;100.00;100803.09;5054303;28;20430;-83
2022/12/24 02:31:19;;;;;;;27.00;4.07;;;;;;;7.47;100.00;100802.72;5054179;28;20056;-83
2022/12/24 02:33:53;;;;;;;30.33;4.05;;;;;;;7.50;100.00;100802.47;5054571;28;20104;-83
2022/12/24 02:36:28;;;;;;;25.60;3.80;;;;;;;7.54;100.00;100806.56;5054290;28;20052;-83
2022/12/24 02:39:01;;;;;;;26.23;3.97;;;;;;;7.53;100.00;100807.53;5052510;28;20029;-82
2022/12/24 02:42:07;;;;;;;34.25;4.57;;;;;;;7.51;100.00;100820.06;5054207;28;20127;-83
2022/12/24 02:44:29;;;;;;;25.55;4.47;;;;;;;7.45;100.00;100820.53;5053140;28;20124;-83
2022/12/24 02:46:57;;;;;;;24.25;3.67;;;;;;;7.41;100.00;100822.56;5054206;28;20033;-80
2022/12/24 02:49:23;;;;;;;31.42;4.25;;;;;;;7.38;100.00;100817.50;5054100;28;20029;-83
2022/12/24 02:51:48;;;;;;;25.13;3.83;;;;;;;7.36;100.00;100819.44;5054183;28;20036;-83
2022/12/24 02:54:14;;;;;;;37.20;5.22;;;;;;;7.33;100.00;100819.69;5053261;28;20108;-83
2022/12/24 02:57:11;;;;;;;35.42;6.28;;;;;;;7.31;100.00;100826.88;5053793;28;20032;-84
2022/12/24 03:00:01;;;;;;;33.92;5.15;;;;;;;7.31;100.00;100831.34;5054097;28;20025;-83
2022/12/24 03:02:52;;;;;;;47.97;5.30;;;;;;;7.28;100.00;100837.69;5054159;28;20024;-83
2022/12/24 03:05:30;;;;;;;33.92;4.20;;;;;;;7.29;100.00;100838.56;5047706;28;20094;-84
2022/12/24 03:08:04;;;;;;;39.80;6.25;;;;;;;7.27;100.00;100840.47;5053629;28;20037;-84
2022/12/24 03:10:41;;;;;;;42.20;5.35;;;;;;;7.24;100.00;100842.41;5053854;28;20106;-83
2022/12/24 03:13:12;;;;;;;38.08;5.60;;;;;;;7.26;100.00;100844.94;5053261;28;20063;-84
2022/12/24 03:15:38;;;;;;;44.22;6.30;;;;;;;7.27;100.00;100854.56;5054007;28;20021;-84
2022/12/24 03:18:06;;;;;;;36.20;4.85;;;;;;;7.31;100.00;100856.00;5053332;28;20025;-84
2022/12/24 03:20:40;;;;;;;40.97;4.97;;;;;;;7.32;100.00;100851.56;5053845;28;20033;-83
2022/12/24 03:23:07;;;;;;;38.30;5.85;;;;;;;7.33;100.00;100858.50;5053146;28;20120;-83
2022/12/24 03:25:37;;;;;;;35.40;5.70;;;;;;;7.33;100.00;100858.50;5053447;28;20033;-83
2022/12/24 03:28:05;;;;;;;34.95;4.72;;;;;;;7.36;100.00;100851.19;5053110;28;20037;-84
2022/12/24 03:30:31;;;;;;;30.25;4.03;;;;;;;7.40;100.00;100852.66;5052992;28;20041;-84
2022/12/24 03:32:56;;;;;;;31.00;5.30;;;;;;;7.48;100.00;100851.19;5053731;28;20123;-84
2022/12/24 03:35:22;;;;;;;30.10;4.22;;;;;;;7.51;100.00;100861.56;5053018;28;20113;-83
2022/12/24 03:37:47;;;;;;;30.98;4.55;;;;;;;7.59;100.00;100853.88;5053137;28;20059;-84
2022/12/24 03:40:13;;;;;;;43.05;5.25;;;;;;;7.69;100.00;100844.25;5051632;28;20025;-84
2022/12/24 03:42:38;;;;;;;28.15;4.45;;;;;;;7.74;100.00;100857.97;5052823;28;20079;-83
2022/12/24 03:45:05;;;;;;;34.25;4.10;;;;;;;7.77;100.00;100847.13;5052654;28;20033;-83
2022/12/24 03:47:30;;;;;;;23.90;3.30;;;;;;;7.76;100.00;100864.00;5052937;28;20378;-84
2022/12/24 03:49:56;;;;;;;25.35;3.80;;;;;;;7.79;100.00;100862.06;5052549;28;20063;-84
2022/12/24 03:52:21;;;;;;;30.95;4.47;;;;;;;7.80;100.00;100858.47;5052838;28;20124;-83
2022/12/24 03:54:47;;;;;;;21.98;4.07;;;;;;;7.83;100.00;100853.75;5053650;28;20120;-85
2022/12/24 03:57:12;;;;;;;32.22;3.95;;;;;;;7.83;100.00;100872.28;5052848;28;20481;-84
2022/12/24 03:59:37;;;;;;;38.35;4.78;;;;;;;7.88;100.00;100859.53;5052771;28;20037;-84
2022/12/24 04:02:03;;;;;;;33.00;4.75;;;;;;;7.89;100.00;100863.03;5053152;28;20124;-85
2022/12/24 04:04:28;;;;;;;33.50;4.68;;;;;;;7.94;100.00;100859.06;5059013;28;20087;-83
2022/12/24 04:06:53;;;;;;;35.08;5.38;;;;;;;7.95;100.00;100860.72;5061905;28;20054;-84
2022/12/24 04:09:19;;;;;;;32.47;4.95;;;;;;;7.95;100.00;100859.88;5063102;28;20036;-84
2022/12/24 04:11:44;;;;;;;33.42;5.50;;;;;;;7.91;100.00;100867.25;5063894;28;20025;-83
2022/12/24 04:14:09;;;;;;;30.00;4.00;;;;;;;7.91;100.00;100869.91;5056861;28;20032;-84
2022/12/24 04:16:35;;;;;;;28.48;4.57;;;;;;;7.90;100.00;100873.50;5053288;28;20035;-83
2022/12/24 04:19:00;;;;;;;28.45;4.45;;;;;;;7.87;100.00;100868.44;5053085;28;20036;-85
2022/12/24 04:21:25;;;;;;;35.92;4.97;;;;;;;7.88;100.00;100879.88;5051993;28;20124;-83
2022/12/24 04:23:51;;;;;;;31.27;5.90;;;;;;;7.87;100.00;100876.41;5053040;28;20029;-83
2022/12/24 04:26:16;;;;;;;34.75;4.95;;;;;;;7.87;100.00;100888.81;5052241;28;20029;-83
2022/12/24 04:28:42;;;;;;;41.70;5.63;;;;;;;7.88;100.00;100887.81;5052431;28;20072;-83
2022/12/24 04:31:10;;;;;;;33.60;4.25;;;;;;;7.87;100.00;100883.50;5052454;28;20389;-82
2022/12/24 04:33:36;;;;;;;31.50;4.90;;;;;;;7.85;100.00;100885.41;5052610;28;20029;-84
2022/12/24 04:36:04;;;;;;;25.35;4.40;;;;;;;7.85;100.00;100885.41;5052645;28;20127;-83
2022/12/24 04:38:30;;;;;;;37.83;5.65;;;;;;;7.83;100.00;100895.31;5051884;28;20062;-83
2022/12/24 04:40:59;;;;;;;33.28;4.57;;;;;;;7.84;100.00;100902.28;5052210;28;20579;-84
2022/12/24 04:43:25;;;;;;;31.67;4.05;;;;;;;7.87;100.00;100896.75;5052117;28;20420;-83
2022/12/24 04:45:50;;;;;;;31.15;4.95;;;;;;;7.87;100.00;100902.88;5052024;28;20074;-84
2022/12/24 04:48:16;;;;;;;40.42;5.75;;;;;;;7.86;100.00;100903.00;5051762;28;20149;-84
2022/12/24 04:50:41;;;;;;;27.17;4.40;;;;;;;7.88;100.00;100914.31;5052550;28;20063;-83
2022/12/24 04:53:07;;;;;;;31.45;5.13;;;;;;;7.87;100.00;100907.34;5052710;28;20065;-83
2022/12/24 04:55:32;;;;;;;32.00;4.47;;;;;;;7.89;100.00;100897.47;5051894;28;20040;-83
2022/12/24 04:57:57;;;;;;;33.35;4.65;;;;;;;7.93;100.00;100899.75;5052187;28;20490;-83
2022/12/24 05:00:23;;;;;;;27.08;4.65;;;;;;;7.99;100.00;100908.19;5051883;28;20037;-83
2022/12/24 05:02:48;;;;;;;35.22;5.10;;;;;;;8.04;100.00;100908.66;5052185;28;20534;-84
2022/12/24 05:05:14;;;;;;;23.35;4.70;;;;;;;8.06;100.00;100912.03;5051843;28;20044;-83
2022/12/24 05:07:39;;;;;;;33.22;5.25;;;;;;;8.05;100.00;100918.31;5052135;28;20025;-83
2022/12/24 05:10:05;;;;;;;34.65;5.32;;;;;;;7.99;100.00;100916.97;5050735;28;20043;-84
2022/12/24 05:12:30;;;;;;;28.80;4.03;;;;;;;7.99;100.00;100921.44;5055441;28;20457;-84
2022/12/24 05:14:56;;;;;;;35.35;5.20;;;;;;;7.96;100.00;100925.16;5056055;28;20112;-83
2022/12/24 05:17:21;;;;;;;32.85;4.88;;;;;;;7.95;100.00;100923.47;5055621;28;20060;-84
2022/12/24 05:19:47;;;;;;;39.30;5.25;;;;;;;7.91;100.00;100922.88;5056205;28;20040;-84
2022/12/24 05:27:40;;;;;;;36.83;4.35;;;;;;;7.86;100.00;100917.09;5055443;28;20047;-83
2022/12/24 05:30:08;;;;;;;34.42;4.68;;;;;;;7.86;100.00;100911.78;5055689;28;20057;-83
2022/12/24 05:32:33;;;;;;;32.88;4.28;;;;;;;7.86;100.00;100917.09;5055076;28;20060;-83
2022/12/24 05:34:58;;;;;;;36.75;4.70;;;;;;;7.84;100.00;100915.53;5055707;28;20096;-83
2022/12/24 05:37:24;;;;;;;39.22;5.78;;;;;;;7.81;100.00;100908.66;5054872;28;20397;-82
2022/12/24 05:39:49;;;;;;;39.60;5.00;;;;;;;7.76;100.00;100909.03;5055272;28;20037;-82
2022/12/24 05:42:14;;;;;;;40.50;4.80;;;;;;;7.72;100.00;100912.88;5055961;28;20044;-83
2022/12/24 05:44:40;;;;;;;37.67;4.55;;;;;;;7.71;100.00;100915.63;5054489;28;20029;-83
2022/12/24 05:47:05;;;;;;;30.15;4.55;;;;;;;7.62;100.00;100925.13;5055578;28;20102;-84
2022/12/24 05:49:30;;;;;;;29.08;4.47;;;;;;;7.55;100.00;100937.16;5054930;28;20447;-83
2022/12/24 05:51:56;;;;;;;35.28;4.38;;;;;;;7.48;100.00;100933.28;5055220;28;20033;-83
2022/12/24 05:54:21;;;;;;;41.42;6.25;;;;;;;7.40;100.00;100926.78;5054925;28;20124;-83
2022/12/24 05:56:47;;;;;;;43.13;6.47;;;;;;;7.35;100.00;100942.16;5055300;28;20037;-83
2022/12/24 05:59:12;;;;;;;32.80;4.60;;;;;;;7.32;100.00;100945.03;5055331;28;20474;-84
2022/12/24 06:01:37;;;;;;;34.92;5.30;;;;;;;7.28;100.00;100950.69;5054477;28;20036;-84
2022/12/24 06:04:03;;;;;;;46.40;5.15;;;;;;;7.26;100.00;100949.97;5055049;28;20032;-83
2022/12/24 06:06:28;;;;;;;35.50;5.28;;;;;;;7.20;100.00;100952.09;5054205;28;20072;-83
2022/12/24 06:08:54;;;;;;;48.67;6.03;;;;;;;7.17;100.00;100957.59;5055063;28;20529;-83
2022/12/24 06:11:22;;;;;;;40.70;6.35;;;;;;;7.12;100.00;100956.25;5054478;28;20371;-79
2022/12/24 06:13:48;;;;;;;39.00;5.38;;;;;;;7.10;100.00;100960.81;5054674;28;20033;-83
2022/12/24 06:16:17;;;;;;;42.60;5.38;;;;;;;7.05;100.00;100969.94;5054636;28;20044;-83
2022/12/24 06:18:43;;;;;;;43.55;6.15;;;;;;;7.04;100.00;100984.13;5054657;28;20029;-83
2022/12/24 06:21:09;;;;;;;36.13;5.20;;;;;;;7.12;100.00;100994.16;5054209;28;20078;-83
2022/12/24 06:23:37;;;;;;;39.22;5.90;;;;;;;7.18;100.00;100985.78;5054143;28;20036;-84
2022/12/24 06:26:04;;;;;;;48.13;6.13;;;;;;;7.22;100.00;100994.31;5054637;28;20040;-83
2022/12/24 06:28:31;;;;;;;42.30;5.93;;;;;;;7.25;100.00;100999.38;5054326;28;20112;-83
2022/12/24 06:30:57;;;;;;;39.33;6.47;;;;;;;7.26;100.00;100985.19;5054779;28;20045;-84
2022/12/24 06:33:22;;;;;;;46.38;5.85;;;;;;;7.29;100.00;100984.13;5052987;28;20106;-81
2022/12/24 06:35:48;;;;;;;35.20;5.18;;;;;;;7.26;100.00;100990.50;5053223;28;20025;-83
2022/12/24 06:38:14;;;;;;;45.42;5.25;;;;;;;7.24;100.00;100992.41;5054461;28;20039;-83
2022/12/24 06:40:42;;;;;;;41.67;5.85;;;;;;;7.16;100.00;100987.66;5054068;28;20033;-84
2022/12/24 06:43:08;;;;;;;45.05;5.38;;;;;;;7.07;100.00;100985.69;5053894;28;20382;-83
2022/12/24 06:45:33;;;;;;;33.83;4.57;;;;;;;6.97;100.00;100982.91;5054041;28;20111;-83
2022/12/24 06:47:59;;;;;;;43.13;5.72;;;;;;;6.84;100.00;100990.03;5054369;28;20398;-84
2022/12/24 06:50:24;;;;;;;50.47;5.55;;;;;;;6.76;100.00;100987.09;5053863;28;20462;-83
2022/12/24 06:52:50;;;;;;;41.22;5.88;;;;;;;6.72;100.00;100994.41;5053768;28;20041;-84
2022/12/24 06:55:15;;;;;;;46.67;5.50;;;;;;;6.69;100.00;100984.91;5054464;28;20035;-84
2022/12/24 06:57:41;;;;;;;55.28;6.57;;;;;;;6.65;100.00;100986.06;5053676;28;20025;-82
2022/12/24 07:00:08;;;;;;;38.38;6.00;;;;;;;6.61;100.00;100991.69;5054882;28;20107;-84
2022/12/24 07:02:34;;;;;;;44.40;5.35;;;;;;;6.54;100.00;101007.16;5053492;28;20053;-84
2022/12/24 07:04:59;;;;;;;45.47;5.93;;;;;;;6.46;100.00;101015.59;5054263;28;20440;-83
2022/12/24 07:07:24;;;;;;;37.85;5.53;;;;;;;6.44;100.00;101006.94;5054049;28;20128;-84
2022/12/24 07:09:50;;;;;;;40.00;6.75;;;;;;;6.40;100.00;101000.19;5053101;28;20033;-83
2022/12/24 07:12:15;;;;;;;40.22;5.43;;;;;;;6.35;100.00;101011.06;5053907;28;20036;-84
2022/12/24 07:14:41;;;;;;;42.47;6.80;;;;;;;6.37;100.00;101007.50;5054181;28;20367;-83
2022/12/24 07:17:06;;;;;;;43.10;6.30;;;;;;;6.42;100.00;101010.63;5065127;28;20041;-83
2022/12/24 07:19:33;;;;;;;47.67;5.55;;;;;;;6.47;100.00;101019.94;5053176;28;20052;-83
2022/12/24 07:21:58;;;;;;;44.65;6.15;;;;;;;6.61;100.00;101034.81;5053844;28;20032;-84
2022/12/24 07:24:23;;;;;;;35.88;5.32;;;;;;;6.70;100.00;101020.09;5053647;28;20037;-84
2022/12/24 07:26:49;;;;;;;38.95;5.78;;;;;;;6.73;100.00;101040.19;5053290;28;20033;-84
2022/12/24 07:29:14;;;;;;;44.20;5.80;;;;;;;6.75;100.00;101043.56;5052786;28;20084;-83
2022/12/24 07:31:40;;;;;;;44.10;6.00;;;;;;;6.78;100.00;101044.22;5053132;28;20116;-83
2022/12/24 07:34:05;;;;;;;48.30;6.40;;;;;;;6.81;100.00;101043.16;5053413;28;20132;-84
2022/12/24 07:36:31;;;;;;;38.83;5.70;;;;;;;6.81;100.00;101051.09;5053344;28;20029;-83
2022/12/24 07:38:56;;;;;;;44.25;6.35;;;;;;;6.81;100.00;101061.69;5053480;28;20079;-84
2022/12/24 07:41:21;;;;;;;43.08;5.85;;;;;;;6.84;100.00;101064.94;5054515;28;20040;-84
2022/12/24 07:43:47;;;;;;;40.28;5.57;;;;;;;6.85;100.00;101076.34;5053297;28;20393;-83
2022/12/24 07:46:12;;;;;;;46.78;6.63;;;;;;;6.81;100.00;101078.38;5059610;28;20060;-83
2022/12/24 07:48:38;;;;;;;30.70;5.00;;;;;;;6.77;100.00;101086.66;5056597;28;20056;-82
2022/12/24 07:51:04;;;;;;;36.22;5.18;;;;;;;6.73;100.00;101085.16;5053139;28;20060;-83
2022/12/24 07:53:29;;;;;;;45.63;5.82;;;;;;;6.70;100.00;101088.84;5053069;28;20044;-83
2022/12/24 07:55:55;;;;;;;43.58;6.53;;;;;;;6.68;100.00;101093.41;5052436;28;20119;-83
2022/12/24 07:58:21;;;;;;;44.53;6.22;;;;;;;6.65;100.00;101094.47;5053027;28;20500;-81
2022/12/24 08:00:46;;;;;;;48.17;5.65;;;;;;;6.61;100.00;101100.09;5052154;28;20041;-81
2022/12/24 08:03:17;;;;;;;42.33;5.43;;;;;;;6.59;100.00;101113.41;5052891;28;20029;-82
2022/12/24 08:05:43;;;;;;;42.17;5.77;;;;;;;6.57;100.00;101120.63;5052003;28;20064;-81
2022/12/24 08:08:09;;;;;;;43.42;6.35;;;;;;;6.50;100.00;101117.53;5052271;28;20266;-82
2022/12/24 08:10:40;;;;;;;53.80;5.50;;;;;;;6.51;100.00;101118.41;5052678;28;20048;-80
2022/12/24 08:13:06;;;;;;;30.42;5.40;;;;;;;6.55;100.00;101116.38;5052720;28;20107;-82
2022/12/24 08:15:32;;;;;;;45.00;6.03;;;;;;;6.55;100.00;101117.22;5052880;28;20155;-83
2022/12/24 08:17:57;;;;;;;37.83;5.28;;;;;;;6.60;100.00;101119.53;5051727;28;20056;-80
2022/12/24 08:20:23;;;;;;;45.38;6.10;;;;;;;6.64;100.00;101119.25;5052792;28;20037;-87
2022/12/24 08:22:48;;;;;;;43.53;5.82;;;;;;;6.72;100.00;101126.63;5048196;28;20089;-81
2022/12/24 08:25:14;;;;;;;44.55;6.18;;;;;;;6.76;100.00;101132.53;5048581;28;20040;-80
2022/12/24 08:27:39;;;;;;;51.70;7.43;;;;;;;6.77;100.00;101134.25;5049398;28;20040;-80
2022/12/24 08:30:05;;;;;;;52.17;6.05;;;;;;;6.78;100.00;101138.59;5049481;28;20507;-82
2022/12/24 08:32:31;;;;;;;45.95;6.50;;;;;;;6.81;100.00;101148.97;5049056;28;20087;-82
2022/12/24 08:34:56;;;;;;;45.67;5.97;;;;;;;6.82;100.00;101158.56;5048738;28;20513;-81
2022/12/24 08:37:22;;;;;;;43.47;5.90;;;;;;;6.87;100.00;101159.09;5049633;28;20492;-81
2022/12/24 08:39:47;;;;;;;48.00;6.38;;;;;;;6.96;100.00;101158.47;5048872;28;20493;-81
2022/12/24 08:42:12;;;;;;;59.40;7.57;;;;;;;7.09;100.00;101169.03;5049558;28;20077;-79
2022/12/24 08:44:38;;;;;;;43.78;5.65;;;;;;;7.22;100.00;101169.00;5050250;28;20477;-83
2022/12/24 08:47:03;;;;;;;52.58;6.85;;;;;;;7.27;100.00;101173.94;5053009;28;20056;-81
2022/12/24 08:49:28;;;;;;;42.88;6.88;;;;;;;7.31;100.00;101181.56;5053257;28;20064;-81
2022/12/24 08:51:54;;;;;;;38.90;6.00;;;;;;;7.40;100.00;101182.72;5053097;28;20102;-80
2022/12/24 08:54:21;;;;;;;44.70;6.03;;;;;;;7.47;100.00;101181.31;5053435;28;20067;-82
2022/12/24 08:56:46;;;;;;;42.13;5.88;;;;;;;7.52;100.00;101194.22;5052921;28;20461;-82
2022/12/24 08:59:12;;;;;;;43.60;6.32;;;;;;;7.53;100.00;101186.16;5052773;28;20033;-81
2022/12/24 09:01:37;;;;;;;41.03;5.65;;;;;;;7.59;100.00;101195.47;5053429;28;20086;-80
2022/12/24 09:04:03;;;;;;;47.22;6.38;;;;;;;7.64;100.00;101189.84;5053118;28;20318;-81
2022/12/24 09:06:30;;;;;;;33.88;5.30;;;;;;;7.67;100.00;101201.03;5053089;28;20039;-81
2022/12/24 09:08:56;;;;;;;44.13;6.22;;;;;;;7.70;100.00;101202.63;5052558;28;20040;-79
2022/12/24 09:11:21;;;;;;;46.45;6.13;;;;;;;7.71;100.00;101207.00;5052834;28;20025;-81
2022/12/24 09:13:47;;;;;;;41.08;6.45;;;;;;;7.76;100.00;101210.13;5049898;28;20031;-80
2022/12/24 09:16:12;;;;;;;39.85;5.80;;;;;;;7.81;100.00;101197.41;5043346;28;20129;-81
2022/12/24 09:18:38;;;;;;;46.40;6.57;;;;;;;7.82;100.00;101200.91;5053658;28;20041;-83
2022/12/24 09:21:14;;;;;;;40.55;5.43;;;;;;;7.83;100.00;101211.38;5054216;28;20436;-81
2022/12/24 09:23:42;;;;;;;31.63;5.22;;;;;;;7.82;100.00;101211.50;5054930;28;20025;-84
2022/12/24 09:26:26;;;;;;;34.78;5.00;;;;;;;7.87;100.00;101226.09;5055490;28;20062;-81
2022/12/24 09:28:52;;;;;;;32.13;4.93;;;;;;;7.83;100.00;101229.09;5054978;28;20040;-84
2022/12/24 09:31:18;;;;;;;31.73;5.55;;;;;;;7.88;100.00;101232.25;5054984;28;20045;-82
2022/12/24 09:33:48;;;;;;;37.10;5.22;;;;;;;7.91;100.00;101234.66;5054862;28;20033;-81
2022/12/24 09:36:14;;;;;;;43.97;6.05;;;;;;;7.98;100.00;101230.59;5054856;28;20099;-81
2022/12/24 09:38:39;;;;;;;42.45;5.30;;;;;;;8.01;100.00;101227.72;5054826;28;20496;-83
2022/12/24 09:41:14;;;;;;;44.60;5.95;;;;;;;8.05;100.00;101218.59;5053896;28;20036;-84
2022/12/24 09:43:46;;;;;;;36.97;5.50;;;;;;;8.06;100.00;101230.91;5054688;28;20036;-84
2022/12/24 09:46:20;;;;;;;34.25;5.50;;;;;;;8.10;100.00;101236.81;5054523;28;20079;-84
2022/12/24 09:48:50;;;;;;;36.40;4.93;;;;;;;8.20;100.00;101244.94;5054515;28;20525;-84
2022/12/24 09:51:40;;;;;;;41.45;5.05;;;;;;;8.30;100.00;101243.31;5053244;28;20376;-85
2022/12/24 09:54:14;;;;;;;37.85;6.07;;;;;;;8.38;100.00;101230.31;5053958;28;20037;-84
2022/12/24 09:56:43;;;;;;;35.75;5.38;;;;;;;8.40;100.00;101232.84;5053932;28;20028;-84
2022/12/24 09:59:13;;;;;;;34.03;4.60;;;;;;;8.38;100.00;101243.56;5053743;28;20057;-83
2022/12/24 10:01:39;;;;;;;42.33;6.03;;;;;;;8.34;100.00;101239.44;5054407;28;20036;-81
2022/12/24 10:04:15;;;;;;;37.42;5.20;;;;;;;8.36;100.00;101249.94;5054311;28;20377;-82
2022/12/24 10:06:57;;;;;;;33.80;5.88;;;;;;;8.55;100.00;101252.91;5054074;28;20028;-78
2022/12/24 10:09:51;;;;;;;27.90;4.65;;;;;;;8.74;100.00;101249.72;5054164;28;20119;-77
2022/12/24 10:12:54;;;;;;;30.73;5.35;;;;;;;8.85;100.00;101248.91;5053922;28;20539;-80
2022/12/24 10:15:32;;;;;;;31.98;4.57;;;;;;;9.02;100.00;101246.75;5031390;28;20121;-81
2022/12/24 10:18:29;;;;;;;32.13;4.43;;;;;;;9.07;100.00;101250.75;5031201;28;20077;-80
2022/12/24 10:21:00;;;;;;;26.90;4.47;;;;;;;9.12;100.00;101251.25;5048044;28;20048;-77
2022/12/24 10:23:46;;;;;;;34.55;5.45;;;;;;;9.30;100.00;101259.59;5054052;28;20500;-78
2022/12/24 10:26:29;;;;;;;26.15;4.15;;;;;;;9.41;100.00;101266.69;5053582;28;20025;-77
2022/12/24 10:29:01;;;;;;;31.95;4.65;;;;;;;9.53;100.00;101276.34;5053622;28;20028;-78
2022/12/24 10:31:30;;;;;;;31.83;4.82;;;;;;;9.64;100.00;101269.34;5053524;28;20105;-80
2022/12/24 10:34:00;;;;;;;33.95;4.82;;;;;;;9.67;100.00;101261.97;5053218;28;20064;-79
2022/12/24 10:36:31;;;;;;;26.67;4.63;;;;;;;9.75;100.00;101272.00;5053834;28;20028;-78
2022/12/24 10:38:57;;;;;;;30.50;5.55;;;;;;;9.67;100.00;101274.41;5052688;28;20037;-81
2022/12/24 10:41:25;;;;;;;37.40;5.32;;;;;;;9.56;100.00;101271.78;5053923;28;20033;-83
2022/12/24 10:43:52;;;;;;;36.30;5.30;;;;;;;9.24;100.00;101269.81;5053445;28;20032;-82
2022/12/24 10:46:34;;;;;;;32.53;5.35;;;;;;;9.09;100.00;101271.84;5052090;28;20052;-81
2022/12/24 10:49:03;;;;;;;30.55;4.47;;;;;;;9.11;100.00;101277.91;5061566;28;20086;-84
2022/12/24 10:51:47;;;;;;;34.25;5.15;;;;;;;9.23;100.00;101278.78;5075677;28;20039;-82
2022/12/24 10:54:23;;;;;;;34.30;5.68;;;;;;;9.29;100.00;101286.25;5077594;28;20028;-85
2022/12/24 10:56:54;;;;;;;35.75;5.15;;;;;;;9.18;100.00;101281.75;5084658;28;20044;-83
2022/12/24 10:59:25;;;;;;;27.50;4.95;;;;;;;9.06;100.00;101285.38;5083931;28;20033;-82
2022/12/24 11:01:51;;;;;;;23.85;4.10;;;;;;;8.95;100.00;101294.16;5086634;28;20138;-84
2022/12/24 11:04:23;;;;;;;42.10;5.35;;;;;;;8.83;100.00;101294.13;5073696;28;20041;-84
2022/12/24 11:07:03;;;;;;;30.02;4.35;;;;;;;8.76;100.00;101300.03;5073611;28;20025;-83
2022/12/24 11:09:31;;;;;;;34.55;5.50;;;;;;;8.76;100.00;101287.63;5073473;28;20111;-81
2022/12/24 11:11:58;;;;;;;29.52;4.95;;;;;;;8.79;100.00;101290.03;5073257;28;20058;-80
2022/12/24 11:14:25;;;;;;;41.83;4.88;;;;;;;8.77;100.00;101291.94;5073437;28;20498;-85
2022/12/24 11:16:53;;;;;;;31.88;4.38;;;;;;;8.80;100.00;101302.31;5073582;28;20028;-85
2022/12/24 11:19:39;;;;;;;35.30;5.25;;;;;;;8.83;100.00;101282.69;5073242;28;20036;-83
2022/12/24 11:22:09;;;;;;;31.73;5.35;;;;;;;8.86;100.00;101284.25;5072084;28;20473;-82
2022/12/24 11:24:37;;;;;;;30.10;4.47;;;;;;;8.84;100.00;101287.03;5072586;28;20099;-81
2022/12/24 11:27:27;;;;;;;26.63;4.35;;;;;;;8.88;100.00;101282.31;5072683;28;20033;-82
2022/12/24 11:30:17;;;;;;;32.97;4.30;;;;;;;8.85;100.00;101298.47;5072647;28;20311;-80
2022/12/24 11:33:09;;;;;;;31.60;4.75;;;;;;;8.87;100.00;101297.41;5072466;28;20032;-80